Time;durP1;ratioP1;P1;durP2;ratioP2;P2;SDS_P1;SDS_P2;PMS_P1;PMS_P2;Temp;Humidity;BMP_temperature;BMP_pressure;BME280_temperature;BME280_humidity;BME280_pressure;Samples;Min_cycle;Max_cycle;Signal;HPM_P1;HPM_P2
2022/02/02 00:00:19;;;;;;;17.32;6.97;;;;;;;;;;360793;147;859973;-60
2022/02/02 00:01:28;;;;;;;16.44;7.15;;;;;;;;;;361232;145;858019;-60
2022/02/02 00:02:45;;;;;;;14.22;6.53;;;;;;;;;;365270;145;857816;-60
2022/02/02 00:03:42;;;;;;;16.65;7.33;;;;;;;;;;360253;148;865040;-60
2022/02/02 00:04:48;;;;;;;14.85;6.69;;;;;;;;;;362250;147;857636;-61
2022/02/02 00:07:04;;;;;;;14.66;6.69;;;;;;;;;;361995;145;856442;-61
2022/02/02 00:08:12;;;;;;;13.38;6.84;;;;;;;;;;360052;148;857912;-61
2022/02/02 00:09:15;;;;;;;16.78;7.32;;;;;;;;;;360531;147;857187;-61
2022/02/02 00:11:26;;;;;;;16.34;6.78;;;;;;;;;;359333;147;857891;-61
2022/02/02 00:12:44;;;;;;;16.56;7.03;;;;;;;;;;360481;146;867053;-62
2022/02/02 00:15:03;;;;;;;14.87;6.52;;;;;;;;;;362205;145;859747;-61
2022/02/02 00:16:09;;;;;;;15.88;7.00;;;;;;;;;;360783;147;859209;-61
2022/02/02 00:17:09;;;;;;;16.03;7.53;;;;;;;;;;360693;146;856956;-61
2022/02/02 00:20:42;;;;;;;16.07;7.25;;;;;;;;;;345634;152;857509;-61
2022/02/02 00:22:40;;;;;;;12.24;6.41;;;;;;;;;;361903;147;865103;-61
2022/02/02 00:23:46;;;;;;;13.68;7.40;;;;;;;;;;360798;147;865058;-62
2022/02/02 00:37:56;;;;;;;17.61;8.04;;;;;;;-4.84;60.20;98883.56;368484;142;857297;-56
2022/02/02 00:38:57;;;;;;;15.56;7.91;;;;;;;-4.85;60.56;98894.47;369396;141;856217;-57
2022/02/02 00:39:59;;;;;;;16.04;7.76;;;;;;;-4.86;60.80;98888.58;372621;141;865017;-56
2022/02/02 00:41:02;;;;;;;19.18;8.06;;;;;;;-4.85;61.02;98889.42;371207;142;866007;-57
2022/02/02 00:42:04;;;;;;;21.72;8.38;;;;;;;-4.85;60.98;98887.77;371390;141;859393;-59
2022/02/02 00:43:05;;;;;;;18.78;8.73;;;;;;;-4.81;61.14;98887.88;369240;142;858636;-57
2022/02/02 00:44:08;;;;;;;19.78;8.29;;;;;;;-4.80;61.30;98884.55;370585;141;857328;-57
2022/02/02 00:45:10;;;;;;;17.39;8.46;;;;;;;-4.78;61.39;98885.47;372935;142;865039;-56
2022/02/02 00:46:14;;;;;;;15.19;7.64;;;;;;;-4.77;61.44;98882.14;371659;142;857322;-56
2022/02/02 00:47:23;;;;;;;18.14;7.92;;;;;;;-4.73;61.41;98881.44;370920;141;858762;-57
2022/02/02 00:48:26;;;;;;;16.98;7.68;;;;;;;-4.72;61.35;98888.21;370741;142;857358;-58
2022/02/02 00:49:26;;;;;;;15.90;7.93;;;;;;;;;;369564;142;857257;-58
2022/02/02 00:50:28;;;;;;;15.29;7.73;;;;;;;;;;372211;141;865070;-58
2022/02/02 00:51:39;;;;;;;16.63;7.56;;;;;;;;;;371716;141;857478;-58
2022/02/02 00:52:34;;;;;;;19.44;7.62;;;;;;;;;;370849;141;866070;-58
2022/02/02 00:53:35;;;;;;;15.43;7.35;;;;;;;;;;371064;143;857277;-57
2022/02/02 00:54:37;;;;;;;13.96;7.54;;;;;;;;;;368663;143;859090;-57
2022/02/02 00:55:39;;;;;;;16.46;7.41;;;;;;;;;;368908;142;865808;-57
2022/02/02 00:56:40;;;;;;;14.39;7.55;;;;;;;;;;367723;144;863678;-58
2022/02/02 00:57:42;;;;;;;14.93;7.44;;;;;;;;;;370435;141;866581;-58
2022/02/02 00:58:44;;;;;;;16.32;7.35;;;;;;;;;;369871;143;866437;-58
2022/02/02 00:59:45;;;;;;;13.48;7.46;;;;;;;;;;369383;142;858897;-58
2022/02/02 01:00:47;;;;;;;11.67;7.12;;;;;;;;;;371309;142;865115;-58
2022/02/02 01:01:49;;;;;;;16.93;7.19;;;;;;;;;;369929;142;864471;-57
2022/02/02 01:02:51;;;;;;;12.08;6.87;;;;;;;;;;370012;141;859262;-58
2022/02/02 01:03:53;;;;;;;14.55;7.14;;;;;;;;;;371148;142;857357;-57
2022/02/02 01:04:55;;;;;;;15.81;7.16;;;;;;;;;;370378;142;865084;-58
2022/02/02 01:05:57;;;;;;;19.49;7.64;;;;;;;;;;370681;141;862600;-58
2022/02/02 01:07:20;;;;;;;16.62;7.32;;;;;;;;;;370259;142;857154;-58
2022/02/02 01:08:51;;;;;;;16.19;6.81;;;;;;;;;;369464;142;858888;-58
2022/02/02 01:09:34;;;;;;;13.74;6.59;;;;;;;;;;364477;143;857677;-57
2022/02/02 01:13:04;;;;;;;15.47;6.10;;;;;;;;;;367990;142;865623;-57
2022/02/02 01:19:01;;;;;;;13.88;6.80;;;;;;;;;;369111;144;865028;-57
2022/02/02 01:20:27;;;;;;;15.74;6.59;;;;;;;;;;369630;142;856873;-57
2022/02/02 01:21:17;;;;;;;12.50;6.58;;;;;;;;;;368801;142;859128;-58
2022/02/02 01:28:23;;;;;;;;;;;;;;;;;;373014;142;859973;-55
2022/02/02 01:29:25;;;;;;;13.34;5.52;;;;;;;;;;369696;143;858531;-58
2022/02/02 01:30:27;;;;;;;16.00;6.59;;;;;;;;;;369023;143;858026;-58
2022/02/02 01:31:29;;;;;;;11.81;5.37;;;;;;;;;;369071;142;857324;-59
2022/02/02 01:32:30;;;;;;;14.62;6.31;;;;;;;;;;370733;142;865711;-59
2022/02/02 01:33:32;;;;;;;11.92;6.46;;;;;;;;;;368695;142;861197;-59
2022/02/02 01:34:34;;;;;;;12.03;6.16;;;;;;;;;;368798;143;863608;-58
2022/02/02 01:35:35;;;;;;;11.80;6.07;;;;;;;;;;368890;142;860161;-59
2022/02/02 01:36:39;;;;;;;11.76;6.58;;;;;;;;;;369135;143;866129;-57
2022/02/02 01:37:41;;;;;;;10.34;6.06;;;;;;;;;;367881;144;865053;-57
2022/02/02 01:38:44;;;;;;;13.53;6.34;;;;;;;;;;369356;142;859207;-57
2022/02/02 01:39:50;;;;;;;13.25;6.40;;;;;;;;;;370121;142;859305;-57
2022/02/02 01:40:54;;;;;;;15.56;5.93;;;;;;;;;;370400;141;857606;-58
2022/02/02 01:41:53;;;;;;;9.73;5.40;;;;;;;;;;369378;143;866149;-56
2022/02/02 01:43:04;;;;;;;12.86;6.55;;;;;;;;;;369529;142;857228;-57
2022/02/02 01:44:14;;;;;;;10.48;5.93;;;;;;;;;;368461;143;856824;-57
2022/02/02 01:45:18;;;;;;;16.04;5.97;;;;;;;;;;370242;143;857177;-57
2022/02/02 01:46:18;;;;;;;11.87;5.96;;;;;;;;;;369462;142;857503;-58
2022/02/02 01:47:18;;;;;;;10.38;5.61;;;;;;;;;;370363;142;857734;-57
2022/02/02 01:48:32;;;;;;;13.73;6.37;;;;;;;;;;370848;141;857593;-57
2022/02/02 01:51:56;;;;;;;14.93;6.08;;;;;;;;;;369997;144;858745;-57
2022/02/02 01:53:10;;;;;;;12.77;6.19;;;;;;;;;;368085;143;865519;-57
2022/02/02 01:55:29;;;;;;;11.92;5.56;;;;;;;;;;350544;151;857407;-58
2022/02/02 01:56:24;;;;;;;11.11;5.34;;;;;;;;;;358451;143;859508;-58
2022/02/02 01:59:47;;;;;;;11.04;5.73;;;;;;;;;;372123;142;857332;-58
2022/02/02 02:00:49;;;;;;;11.68;6.09;;;;;;;;;;371121;142;857159;-57
2022/02/02 02:01:51;;;;;;;11.36;5.55;;;;;;;;;;369372;142;865082;-58
2022/02/02 02:02:54;;;;;;;10.89;5.81;;;;;;;;;;370060;144;865040;-58
2022/02/02 02:03:57;;;;;;;10.38;5.23;;;;;;;;;;368706;142;857905;-58
2022/02/02 02:04:58;;;;;;;12.00;5.79;;;;;;;;;;370487;142;857251;-58
2022/02/02 02:06:00;;;;;;;10.78;5.73;;;;;;;;;;369601;142;856707;-57
2022/02/02 02:07:01;;;;;;;10.15;5.65;;;;;;;;;;369758;143;865071;-57
2022/02/02 02:08:03;;;;;;;12.41;5.98;;;;;;;;;;369590;142;866698;-58
2022/02/02 02:09:05;;;;;;;13.15;5.80;;;;;;;;;;369726;143;863880;-58
2022/02/02 02:10:07;;;;;;;11.99;5.46;;;;;;;;;;369600;144;857203;-57
2022/02/02 02:11:15;;;;;;;9.61;5.72;;;;;;;;;;369006;143;857326;-58
2022/02/02 02:12:12;;;;;;;12.66;5.59;;;;;;;;;;368340;142;857819;-56
2022/02/02 02:13:21;;;;;;;10.04;5.44;;;;;;;;;;369843;142;858857;-57
2022/02/02 02:14:39;;;;;;;10.82;5.61;;;;;;;;;;368989;142;865433;-57
2022/02/02 02:15:26;;;;;;;13.17;5.54;;;;;;;;;;367616;142;859070;-59
2022/02/02 02:16:25;;;;;;;9.81;5.95;;;;;;;;;;370779;142;859018;-56
2022/02/02 02:17:27;;;;;;;10.42;5.26;;;;;;;;;;370303;144;857839;-57
2022/02/02 02:18:29;;;;;;;12.39;5.43;;;;;;;;;;369683;141;865117;-57
2022/02/02 02:19:30;;;;;;;9.74;5.52;;;;;;;;;;369124;142;857387;-57
2022/02/02 02:20:32;;;;;;;11.41;5.67;;;;;;;;;;369489;144;859610;-57
2022/02/02 02:21:34;;;;;;;10.95;6.33;;;;;;;;;;371074;143;858657;-57
2022/02/02 02:22:39;;;;;;;9.11;5.40;;;;;;;;;;369554;142;857177;-58
2022/02/02 02:23:39;;;;;;;14.70;5.49;;;;;;;;;;369007;142;866873;-59
2022/02/02 02:24:42;;;;;;;12.31;5.55;;;;;;;;;;369294;144;865845;-58
2022/02/02 02:25:43;;;;;;;12.30;5.55;;;;;;;;;;370843;143;857293;-59
2022/02/02 02:26:45;;;;;;;9.56;5.40;;;;;;;;;;369766;142;865191;-59
2022/02/02 02:27:47;;;;;;;12.90;5.72;;;;;;;;;;370343;142;866302;-58
2022/02/02 02:30:06;;;;;;;13.96;5.94;;;;;;;;;;370207;142;858620;-56
2022/02/02 02:31:18;;;;;;;10.20;5.24;;;;;;;;;;369155;142;857308;-56
2022/02/02 02:32:21;;;;;;;9.31;5.66;;;;;;;;;;368316;142;857302;-58
2022/02/02 02:34:55;;;;;;;11.20;4.59;;;;;;;;;;363897;143;865185;-57
2022/02/02 02:35:56;;;;;;;11.93;4.87;;;;;;;;;;370409;142;857868;-58
2022/02/02 02:37:06;;;;;;;10.11;5.89;;;;;;;;;;369084;143;865174;-57
2022/02/02 02:55:48;;;;;;;10.49;5.38;;;;;;;;;;369046;141;857828;-58
2022/02/02 02:55:59;;;;;;;11.53;5.18;;;;;;;;;;370416;142;860669;-57
2022/02/02 02:57:01;;;;;;;15.68;6.21;;;;;;;;;;371444;142;857296;-57
2022/02/02 02:59:11;;;;;;;12.79;5.62;;;;;;;;;;371274;142;856314;-57
2022/02/02 03:00:30;;;;;;;11.03;5.50;;;;;;;;;;369505;142;858655;-58
2022/02/02 03:01:46;;;;;;;10.69;4.83;;;;;;;;;;368951;142;859133;-57
2022/02/02 03:30:15;;;;;;;;;;;;;;;;;;367801;145;856665;-58
2022/02/02 03:31:22;;;;;;;9.19;4.86;;;;;;;;;;367202;145;857523;-57
2022/02/02 03:34:37;;;;;;;12.20;5.18;;;;;;;;;;365566;144;857497;-57
2022/02/02 03:52:06;;;;;;;15.77;5.56;;;;;;;;;;361001;148;857433;-57
2022/02/02 03:56:36;;;;;;;10.29;5.59;;;;;;;;;;357580;147;857221;-58
2022/02/02 03:57:53;;;;;;;14.27;5.76;;;;;;;;;;358607;147;857741;-59
2022/02/02 03:58:52;;;;;;;10.57;5.47;;;;;;;;;;358473;148;858038;-59
2022/02/02 04:02:19;;;;;;;16.74;5.86;;;;;;;;;;348279;151;859309;-58
2022/02/02 04:04:53;;;;;;;12.04;6.23;;;;;;;;;;360294;147;856332;-56
2022/02/02 04:05:52;;;;;;;13.56;6.57;;;;;;;;;;359076;148;859143;-58
2022/02/02 04:06:59;;;;;;;14.64;6.34;;;;;;;;;;357314;147;857919;-58
2022/02/02 04:08:25;;;;;;;14.56;6.09;;;;;;;;;;358727;148;865698;-59
2022/02/02 04:09:20;;;;;;;13.54;6.09;;;;;;;;;;358497;148;858428;-59
2022/02/02 04:10:23;;;;;;;13.03;6.28;;;;;;;;;;359742;148;857941;-58
2022/02/02 04:11:35;;;;;;;11.51;5.31;;;;;;;;;;358154;147;859417;-56
2022/02/02 04:12:46;;;;;;;18.02;6.96;;;;;;;;;;357637;148;864996;-58
2022/02/02 04:51:41;;;;;;;14.27;6.91;;;;;;;;;;333024;157;857543;-55
2022/02/02 04:58:53;;;;;;;18.27;7.49;;;;;;;;;;325610;162;859270;-54
2022/02/02 04:59:59;;;;;;;15.69;7.80;;;;;;;;;;331216;154;857333;-54
2022/02/02 05:07:35;;;;;;;20.01;8.52;;;;;;;;;;351267;151;857376;-55
2022/02/02 05:08:40;;;;;;;19.80;8.71;;;;;;;;;;353087;149;857499;-56
2022/02/02 05:10:23;;;;;;;15.53;7.91;;;;;;;;;;351024;151;857964;-55
2022/02/02 05:11:32;;;;;;;15.82;8.35;;;;;;;;;;336109;151;858460;-55
2022/02/02 05:12:21;;;;;;;15.92;8.40;;;;;;;;;;339625;151;859167;-54
2022/02/02 05:15:08;;;;;;;17.90;7.81;;;;;;;;;;348561;152;858679;-55
2022/02/02 05:17:38;;;;;;;15.27;8.56;;;;;;;;;;348034;152;859843;-56
2022/02/02 05:42:59;;;;;;;;;;;;;;;-6.56;63.31;98756.81;366152;146;856299;-55
2022/02/02 05:50:39;;;;;;;24.58;11.16;;;;;;;-6.27;63.23;98753.77;361910;146;866647;-54
2022/02/02 05:51:49;;;;;;;19.61;9.62;;;;;;;-6.27;63.06;98751.24;360688;147;857757;-53
2022/02/02 05:52:50;;;;;;;17.69;10.13;;;;;;;-6.31;63.05;98761.20;362347;147;857494;-53
2022/02/02 05:53:52;;;;;;;20.30;9.75;;;;;;;-6.29;63.04;98757.88;363084;146;856823;-54
2022/02/02 05:54:53;;;;;;;19.99;9.78;;;;;;;-6.28;63.02;98752.88;361913;146;856669;-54
2022/02/02 05:55:55;;;;;;;23.05;10.53;;;;;;;-6.26;63.03;98758.00;361925;146;857312;-55
2022/02/02 05:56:57;;;;;;;24.09;9.73;;;;;;;-6.26;63.04;98763.88;355865;149;858154;-54
2022/02/02 05:57:59;;;;;;;21.08;9.99;;;;;;;-6.24;63.12;98764.80;356202;147;856675;-55
2022/02/02 05:59:01;;;;;;;21.71;9.77;;;;;;;-6.22;63.11;98768.25;362601;147;858020;-53
2022/02/02 06:00:03;;;;;;;17.19;9.81;;;;;;;-6.22;62.91;98763.20;361940;146;856679;-52
2022/02/02 06:01:06;;;;;;;21.01;9.76;;;;;;;;;;362543;146;856630;-54
2022/02/02 06:02:13;;;;;;;20.44;11.01;;;;;;;;;;362917;147;864900;-54
2022/02/02 06:03:14;;;;;;;21.08;9.86;;;;;;;;;;362692;147;859060;-54
2022/02/02 06:04:16;;;;;;;22.90;9.25;;;;;;;;;;360783;146;856060;-55
2022/02/02 06:05:17;;;;;;;20.39;9.94;;;;;;;;;;353980;149;865669;-54
2022/02/02 06:06:22;;;;;;;21.73;9.84;;;;;;;;;;361796;146;866183;-54
2022/02/02 06:07:23;;;;;;;18.42;9.43;;;;;;;;;;361180;146;858889;-53
2022/02/02 06:08:25;;;;;;;22.26;10.03;;;;;;;;;;361148;146;859524;-54
2022/02/02 06:09:33;;;;;;;21.56;10.49;;;;;;;;;;362748;146;864875;-54
2022/02/02 06:10:30;;;;;;;24.32;11.08;;;;;;;;;;362492;146;864871;-53
2022/02/02 06:11:33;;;;;;;20.82;9.49;;;;;;;;;;362906;146;857769;-53
2022/02/02 06:12:35;;;;;;;24.21;10.04;;;;;;;;;;363658;147;864583;-56
2022/02/02 06:13:43;;;;;;;22.11;10.46;;;;;;;;;;361280;147;857367;-56
2022/02/02 06:14:43;;;;;;;24.57;10.42;;;;;;;;;;363074;147;857789;-56
2022/02/02 06:15:46;;;;;;;21.81;10.14;;;;;;;;;;361518;146;856815;-56
2022/02/02 06:16:48;;;;;;;23.44;10.76;;;;;;;;;;362743;147;864906;-54
2022/02/02 06:17:52;;;;;;;24.76;10.71;;;;;;;;;;363320;147;856689;-55
2022/02/02 06:18:55;;;;;;;22.22;10.53;;;;;;;;;;361541;146;863915;-55
2022/02/02 06:19:56;;;;;;;26.60;10.56;;;;;;;;;;361807;147;865139;-55
2022/02/02 06:20:58;;;;;;;24.68;10.83;;;;;;;;;;359939;147;856364;-55
2022/02/02 06:22:17;;;;;;;21.88;9.67;;;;;;;;;;361903;147;857346;-55
2022/02/02 06:23:19;;;;;;;22.34;10.44;;;;;;;;;;362975;147;862540;-54
2022/02/02 06:24:22;;;;;;;24.27;10.39;;;;;;;;;;360641;147;859571;-56
2022/02/02 06:25:25;;;;;;;21.31;9.68;;;;;;;;;;362294;147;864883;-56
2022/02/02 06:26:27;;;;;;;19.92;9.69;;;;;;;;;;359769;146;858871;-55
2022/02/02 06:27:29;;;;;;;25.54;10.27;;;;;;;;;;361221;147;866766;-55
2022/02/02 06:28:34;;;;;;;22.82;10.36;;;;;;;;;;363530;147;857340;-55
2022/02/02 06:29:36;;;;;;;24.14;10.26;;;;;;;;;;355851;149;858758;-55
2022/02/02 06:30:38;;;;;;;22.09;10.33;;;;;;;;;;363167;146;857355;-53
2022/02/02 06:31:40;;;;;;;20.34;9.70;;;;;;;;;;362921;147;857620;-56
2022/02/02 06:32:44;;;;;;;19.11;9.72;;;;;;;;;;363861;146;865474;-53
2022/02/02 06:33:45;;;;;;;19.60;9.34;;;;;;;;;;363086;146;859565;-54
2022/02/02 06:34:47;;;;;;;22.38;10.31;;;;;;;;;;362279;147;858798;-53
2022/02/02 06:35:49;;;;;;;17.97;9.74;;;;;;;;;;361757;147;864286;-54
2022/02/02 06:36:53;;;;;;;21.22;10.01;;;;;;;;;;360625;146;862521;-54
2022/02/02 06:37:54;;;;;;;20.86;10.07;;;;;;;;;;361106;146;856292;-53
2022/02/02 06:38:56;;;;;;;18.77;9.15;;;;;;;;;;361279;146;856615;-54
2022/02/02 06:40:07;;;;;;;22.51;9.58;;;;;;;;;;362710;147;863850;-54
2022/02/02 06:41:09;;;;;;;19.80;9.31;;;;;;;;;;356148;149;863514;-55
2022/02/02 06:42:11;;;;;;;24.84;9.78;;;;;;;;;;353013;149;857563;-54
2022/02/02 06:43:13;;;;;;;25.19;9.84;;;;;;;;;;363243;147;856835;-55
2022/02/02 06:44:15;;;;;;;23.27;10.25;;;;;;;;;;363067;145;861390;-55
2022/02/02 06:45:16;;;;;;;18.76;9.50;;;;;;;;;;362363;146;856603;-54
2022/02/02 06:46:19;;;;;;;25.57;10.28;;;;;;;;;;364352;147;863901;-54
2022/02/02 06:47:22;;;;;;;23.71;10.35;;;;;;;;;;363159;146;856625;-54
2022/02/02 06:48:24;;;;;;;21.66;10.08;;;;;;;;;;363534;146;856117;-54
2022/02/02 06:49:25;;;;;;;19.77;9.34;;;;;;;;;;364697;147;856220;-54
2022/02/02 06:50:31;;;;;;;17.77;9.59;;;;;;;;;;361160;147;863883;-55
2022/02/02 06:51:36;;;;;;;21.06;9.48;;;;;;;;;;362562;147;863615;-54
2022/02/02 06:52:37;;;;;;;22.91;9.87;;;;;;;;;;361205;146;856093;-55
2022/02/02 06:53:48;;;;;;;21.18;9.76;;;;;;;;;;361781;147;856500;-54
2022/02/02 06:55:00;;;;;;;19.81;9.20;;;;;;;;;;360815;147;863593;-54
2022/02/02 06:56:13;;;;;;;16.21;8.25;;;;;;;;;;362424;146;857494;-55
2022/02/02 06:57:11;;;;;;;27.62;11.13;;;;;;;;;;353361;150;856258;-55
2022/02/02 06:58:24;;;;;;;18.31;9.11;;;;;;;;;;356035;147;856255;-55
2022/02/02 07:00:39;;;;;;;20.29;8.84;;;;;;;;;;362831;146;856116;-55
2022/02/02 07:01:48;;;;;;;18.22;8.79;;;;;;;;;;361361;145;856770;-55
2022/02/02 07:02:54;;;;;;;21.82;8.65;;;;;;;;;;361336;147;856691;-56
2022/02/02 07:05:11;;;;;;;16.10;8.56;;;;;;;;;;361032;147;857013;-55
2022/02/02 07:06:18;;;;;;;20.03;8.63;;;;;;;;;;360455;147;856095;-56
2022/02/02 07:07:26;;;;;;;18.27;9.58;;;;;;;;;;363113;146;856578;-56
2022/02/02 07:08:51;;;;;;;19.82;9.39;;;;;;;;;;359873;147;856941;-56
2022/02/02 07:10:41;;;;;;;18.52;8.76;;;;;;;;;;361291;147;856904;-55
2022/02/02 07:12:49;;;;;;;20.48;10.02;;;;;;;;;;359035;146;863798;-56
2022/02/02 07:14:06;;;;;;;19.23;9.18;;;;;;;;;;362890;147;856743;-55
2022/02/02 07:16:53;;;;;;;19.43;9.93;;;;;;;;;;362075;147;856652;-55
2022/02/02 07:17:32;;;;;;;24.81;10.29;;;;;;;;;;354164;147;856971;-56
2022/02/02 07:18:33;;;;;;;19.44;9.71;;;;;;;;;;362564;146;856698;-55
2022/02/02 07:19:54;;;;;;;23.93;9.87;;;;;;;;;;362010;147;856601;-55
2022/02/02 07:23:23;;;;;;;26.97;9.83;;;;;;;;;;339916;155;856664;-55
2022/02/02 07:24:26;;;;;;;21.17;10.16;;;;;;;;;;355437;147;863668;-55
2022/02/02 07:27:41;;;;;;;23.48;10.36;;;;;;;;;;361585;146;856685;-56
2022/02/02 07:30:04;;;;;;;21.80;10.30;;;;;;;;;;362321;146;856656;-56
2022/02/02 07:31:00;;;;;;;23.46;9.81;;;;;;;;;;360137;147;856335;-55
2022/02/02 07:32:11;;;;;;;18.59;9.07;;;;;;;;;;362090;146;856650;-56
2022/02/02 07:33:13;;;;;;;23.52;9.16;;;;;;;;;;363642;146;856606;-56
2022/02/02 07:34:14;;;;;;;16.11;8.07;;;;;;;;;;362734;146;857230;-56
2022/02/02 07:35:23;;;;;;;23.29;10.32;;;;;;;;;;362887;146;863397;-56
2022/02/02 07:36:29;;;;;;;25.73;10.06;;;;;;;;;;362637;147;863559;-56
2022/02/02 07:37:32;;;;;;;22.85;10.28;;;;;;;;;;362268;146;856706;-55
2022/02/02 07:38:33;;;;;;;22.22;10.17;;;;;;;;;;361744;147;856593;-55
2022/02/02 07:39:35;;;;;;;20.01;9.09;;;;;;;;;;363526;146;856473;-58
2022/02/02 07:40:37;;;;;;;21.20;10.54;;;;;;;;;;362417;144;856095;-58
2022/02/02 07:41:47;;;;;;;20.62;10.24;;;;;;;;;;362065;146;856438;-57
2022/02/02 07:42:49;;;;;;;25.36;10.23;;;;;;;;;;361280;147;856208;-57
2022/02/02 07:43:52;;;;;;;19.91;10.17;;;;;;;;;;353713;147;856881;-57
2022/02/02 07:44:58;;;;;;;28.84;11.56;;;;;;;;;;361433;146;856126;-57
2022/02/02 07:46:04;;;;;;;24.23;10.43;;;;;;;;;;360839;147;856629;-56
2022/02/02 07:47:09;;;;;;;20.39;10.84;;;;;;;;;;362904;147;856474;-57
2022/02/02 07:48:10;;;;;;;23.18;10.51;;;;;;;;;;362026;147;856624;-58
2022/02/02 07:49:11;;;;;;;32.47;12.21;;;;;;;;;;360298;146;856269;-57
2022/02/02 07:50:13;;;;;;;25.47;10.25;;;;;;;;;;362747;147;856545;-56
2022/02/02 07:51:15;;;;;;;20.00;9.65;;;;;;;;;;362064;146;855980;-56
2022/02/02 07:52:18;;;;;;;23.35;10.24;;;;;;;;;;362158;146;856671;-55
2022/02/02 07:53:24;;;;;;;24.94;10.48;;;;;;;;;;362606;146;856502;-56
2022/02/02 07:54:27;;;;;;;20.62;10.50;;;;;;;;;;361866;147;856659;-55
2022/02/02 07:55:29;;;;;;;21.28;9.16;;;;;;;;;;361237;145;856101;-58
2022/02/02 07:56:39;;;;;;;23.12;9.95;;;;;;;;;;362077;147;856415;-57
2022/02/02 07:57:36;;;;;;;25.06;10.49;;;;;;;;;;361497;147;856228;-58
2022/02/02 07:58:39;;;;;;;18.37;8.98;;;;;;;;;;360965;145;863709;-59
2022/02/02 07:59:54;;;;;;;22.55;10.68;;;;;;;;;;361270;146;856306;-59
2022/02/02 08:00:57;;;;;;;20.07;8.73;;;;;;;;;;361861;146;857234;-58
2022/02/02 08:02:00;;;;;;;18.25;8.49;;;;;;;;;;361260;147;856651;-54
2022/02/02 08:03:08;;;;;;;23.66;9.99;;;;;;;;;;361881;145;856323;-55
2022/02/02 08:04:05;;;;;;;24.29;11.21;;;;;;;;;;360821;145;863668;-55
2022/02/02 08:05:09;;;;;;;20.64;11.14;;;;;;;;;;362054;146;856579;-55
2022/02/02 08:06:12;;;;;;;22.55;9.49;;;;;;;;;;361226;146;864030;-55
2022/02/02 08:07:21;;;;;;;22.91;9.78;;;;;;;;;;361801;145;856758;-55
2022/02/02 08:09:30;;;;;;;28.60;10.96;;;;;;;;;;361752;146;856206;-58
2022/02/02 08:10:28;;;;;;;22.12;10.91;;;;;;;;;;362059;147;856249;-56
2022/02/02 08:11:33;;;;;;;19.11;8.29;;;;;;;;;;362258;146;856583;-57
2022/02/02 08:12:41;;;;;;;22.28;10.16;;;;;;;;;;361813;145;856038;-58
2022/02/02 08:13:43;;;;;;;23.38;10.66;;;;;;;;;;360961;145;856646;-57
2022/02/02 08:14:44;;;;;;;23.58;10.23;;;;;;;;;;361382;146;863919;-58
2022/02/02 08:15:55;;;;;;;18.54;9.53;;;;;;;;;;362512;146;856890;-58
2022/02/02 08:16:49;;;;;;;22.12;9.23;;;;;;;;;;362337;147;857190;-57
2022/02/02 08:17:53;;;;;;;20.39;8.43;;;;;;;;;;362620;145;856168;-58
2022/02/02 08:18:54;;;;;;;20.92;9.98;;;;;;;;;;362173;146;856693;-59
2022/02/02 08:19:57;;;;;;;26.61;11.45;;;;;;;;;;362485;147;856127;-57
2022/02/02 08:20:58;;;;;;;21.18;11.13;;;;;;;;;;362022;147;856121;-56
2022/02/02 08:22:00;;;;;;;20.61;10.19;;;;;;;;;;362534;147;856796;-57
2022/02/02 08:23:01;;;;;;;18.80;8.57;;;;;;;;;;362153;146;856947;-56
2022/02/02 08:24:03;;;;;;;24.60;10.45;;;;;;;;;;363474;147;863753;-61
2022/02/02 08:25:06;;;;;;;24.19;10.80;;;;;;;;;;361968;146;863677;-56
2022/02/02 08:26:13;;;;;;;20.43;9.54;;;;;;;;;;362344;146;856764;-56
2022/02/02 08:27:11;;;;;;;20.16;9.94;;;;;;;;;;361027;146;863576;-56
2022/02/02 08:28:13;;;;;;;21.28;11.26;;;;;;;;;;362049;147;856602;-57
2022/02/02 08:29:15;;;;;;;21.48;11.14;;;;;;;;;;356078;148;863770;-57
2022/02/02 08:30:19;;;;;;;24.85;10.85;;;;;;;;;;356298;147;856262;-56
2022/02/02 08:31:21;;;;;;;17.82;7.64;;;;;;;;;;362546;146;863910;-56
2022/02/02 08:32:27;;;;;;;23.02;9.57;;;;;;;;;;362346;147;856912;-56
2022/02/02 08:33:32;;;;;;;23.25;10.13;;;;;;;;;;362103;146;856072;-55
2022/02/02 08:34:29;;;;;;;19.85;9.98;;;;;;;;;;358861;147;856627;-56
2022/02/02 08:35:34;;;;;;;22.23;11.14;;;;;;;;;;358121;149;856059;-56
2022/02/02 08:36:37;;;;;;;24.39;9.91;;;;;;;;;;358402;147;864067;-55
2022/02/02 08:37:43;;;;;;;21.66;9.09;;;;;;;;;;359152;148;863632;-56
2022/02/02 08:38:52;;;;;;;23.33;9.71;;;;;;;;;;357149;147;856192;-56
2022/02/02 08:40:11;;;;;;;26.91;10.23;;;;;;;;;;355623;149;856202;-56
2022/02/02 08:41:04;;;;;;;21.37;10.28;;;;;;;;;;358933;147;857264;-55
2022/02/02 08:42:04;;;;;;;28.73;10.43;;;;;;;;;;358358;147;857188;-55
2022/02/02 08:43:13;;;;;;;23.53;9.89;;;;;;;;;;360579;149;856589;-55
2022/02/02 08:44:14;;;;;;;19.92;9.14;;;;;;;;;;356488;149;864064;-56
2022/02/02 08:45:22;;;;;;;23.09;10.53;;;;;;;;;;358745;147;856503;-57
2022/02/02 08:46:31;;;;;;;25.59;11.24;;;;;;;;;;357753;147;856636;-56
2022/02/02 08:47:25;;;;;;;27.25;10.82;;;;;;;;;;357022;148;856251;-55
2022/02/02 08:48:27;;;;;;;23.04;12.00;;;;;;;;;;358634;148;856740;-56
2022/02/02 08:49:33;;;;;;;25.06;10.44;;;;;;;;;;358688;147;863893;-56
2022/02/02 08:50:47;;;;;;;25.58;12.05;;;;;;;;;;356144;149;856231;-56
2022/02/02 08:51:47;;;;;;;20.28;10.85;;;;;;;;;;358085;149;856717;-55
2022/02/02 08:52:54;;;;;;;24.89;11.85;;;;;;;;;;358582;147;857204;-56
2022/02/02 08:55:14;;;;;;;23.87;10.15;;;;;;;;;;357807;147;856254;-56
2022/02/02 09:00:37;;;;;;;24.72;11.01;;;;;;;;;;358326;147;856668;-56
2022/02/02 09:01:39;;;;;;;25.61;12.19;;;;;;;;;;357973;147;857174;-54
2022/02/02 09:02:54;;;;;;;26.45;11.40;;;;;;;;;;357307;147;856331;-56
2022/02/02 09:05:25;;;;;;;24.37;10.87;;;;;;;;;;357552;147;856497;-56
2022/02/02 09:06:27;;;;;;;28.43;13.90;;;;;;;;;;356537;149;857397;-56
2022/02/02 09:07:28;;;;;;;24.60;10.49;;;;;;;;;;358703;147;856629;-55
2022/02/02 09:08:31;;;;;;;20.76;11.14;;;;;;;;;;359422;147;863562;-56
2022/02/02 09:21:34;;;;;;;23.04;10.24;;;;;;;;;;357478;149;856970;-57
2022/02/02 09:22:18;;;;;;;26.35;11.08;;;;;;;;;;347076;149;856123;-56
2022/02/02 09:24:02;;;;;;;20.14;11.66;;;;;;;;;;357067;147;856280;-56
2022/02/02 09:25:06;;;;;;;33.92;12.54;;;;;;;;;;357906;149;856268;-57
2022/02/02 09:32:18;;;;;;;22.11;10.03;;;;;;;;;;359799;149;856591;-60
2022/02/02 09:34:10;;;;;;;23.04;11.64;;;;;;;;;;359157;147;856153;-59
2022/02/02 09:35:10;;;;;;;24.38;11.06;;;;;;;;;;357776;147;864157;-57
2022/02/02 09:36:17;;;;;;;25.19;10.68;;;;;;;;;;358373;149;856740;-57
2022/02/02 09:37:17;;;;;;;25.68;9.68;;;;;;;;;;358322;147;856668;-57
2022/02/02 09:38:19;;;;;;;20.45;10.33;;;;;;;;;;359002;147;856181;-56
2022/02/02 09:39:29;;;;;;;17.98;9.99;;;;;;;;;;358410;149;856211;-56
2022/02/02 09:41:48;;;;;;;19.83;9.67;;;;;;;;;;358760;149;856556;-57
2022/02/02 09:42:53;;;;;;;20.72;9.86;;;;;;;;;;357829;147;856855;-56
2022/02/02 09:43:56;;;;;;;31.73;10.88;;;;;;;;;;357631;149;863757;-57
2022/02/02 09:44:57;;;;;;;19.48;9.41;;;;;;;;;;358132;147;856517;-59
2022/02/02 09:46:05;;;;;;;21.08;10.25;;;;;;;;;;357415;147;861244;-56
2022/02/02 09:47:16;;;;;;;16.12;7.90;;;;;;;;;;357593;149;856370;-57
2022/02/02 09:48:15;;;;;;;17.16;8.04;;;;;;;;;;358928;149;856922;-56
2022/02/02 09:49:21;;;;;;;18.46;7.79;;;;;;;;;;358091;147;856155;-56
2022/02/02 09:50:24;;;;;;;18.51;8.79;;;;;;;;;;356661;149;856457;-56
2022/02/02 09:51:35;;;;;;;18.92;8.96;;;;;;;;;;357336;149;857020;-57
2022/02/02 09:52:30;;;;;;;22.41;9.58;;;;;;;;;;356517;147;856135;-57
2022/02/02 09:53:40;;;;;;;21.29;7.39;;;;;;;;;;358668;147;856013;-59
2022/02/02 09:58:26;;;;;;;21.71;8.83;;;;;;;;;;348986;151;856342;-56
2022/02/02 10:00:48;;;;;;;16.68;7.80;;;;;;;;;;355092;149;857011;-56
2022/02/02 10:02:08;;;;;;;13.30;7.35;;;;;;;;;;359012;149;856381;-57
2022/02/02 10:03:09;;;;;;;18.19;7.86;;;;;;;;;;356187;149;856614;-57
2022/02/02 10:05:34;;;;;;;18.31;8.62;;;;;;;;;;359415;148;856526;-56
2022/02/02 10:06:54;;;;;;;12.81;6.54;;;;;;;;;;358622;149;856609;-56
2022/02/02 10:07:55;;;;;;;21.42;8.65;;;;;;;;;;355437;147;856177;-56
2022/02/02 10:09:55;;;;;;;18.59;8.39;;;;;;;;;;358990;149;856367;-56
2022/02/02 10:10:58;;;;;;;16.12;7.57;;;;;;;;;;355522;149;856872;-56
2022/02/02 10:12:40;;;;;;;15.76;7.84;;;;;;;;;;357759;149;856778;-56